Time;durP1;ratioP1;P1;durP2;ratioP2;P2;SDS_P1;SDS_P2;PMS_P1;PMS_P2;Temp;Humidity;BMP_temperature;BMP_pressure;BME280_temperature;BME280_humidity;BME280_pressure;Samples;Min_cycle;Max_cycle;Signal;HPM_P1;HPM_P2
2022/10/03 00:01:56;;;;;;;8.95;3.53;;;13.90;99.90;;;14.32;74.78;102451.59;5053340;28;20055;-73
2022/10/03 00:04:59;;;;;;;9.40;3.33;;;13.90;99.90;;;13.71;74.62;102335.00;5052682;28;20041;-73
2022/10/03 00:07:55;;;;;;;8.48;4.18;;;14.00;99.90;;;14.36;74.79;102458.72;5053296;28;20303;-74
2022/10/03 00:10:36;;;;;;;5.55;3.15;;;14.00;99.90;;;14.37;75.05;102466.72;5053362;28;20148;-74
2022/10/03 00:13:19;;;;;;;8.93;3.72;;;14.00;99.90;;;14.42;74.47;102466.72;5053762;28;20045;-74
2022/10/03 00:16:04;;;;;;;13.05;3.92;;;14.10;99.90;;;14.51;74.08;102465.88;5053642;28;20071;-74
2022/10/03 00:18:47;;;;;;;11.20;3.90;;;14.10;99.90;;;14.47;74.15;102459.66;5053307;28;20060;-74
2022/10/03 00:21:41;;;;;;;12.55;4.28;;;14.20;99.90;;;14.52;74.09;102460.56;5053487;28;20144;-73
2022/10/03 00:24:24;;;;;;;14.18;4.43;;;14.20;99.90;;;14.55;74.19;102470.34;5051779;28;20095;-73
2022/10/03 00:26:58;;;;;;;11.32;4.00;;;14.20;99.90;;;14.52;73.99;102465.03;5052838;28;20486;-74
2022/10/03 00:29:56;;;;;;;11.65;4.30;;;14.20;99.90;;;14.52;74.13;102473.00;5068473;28;20045;-74
2022/10/03 00:32:49;;;;;;;7.78;3.35;;;14.20;99.90;;;14.51;74.66;102482.75;5051738;28;20091;-74
2022/10/03 00:35:34;;;;;;;10.32;3.97;;;14.10;99.90;;;14.59;74.66;102477.47;5053049;28;20092;-74
2022/10/03 00:38:22;;;;;;;8.43;3.58;;;14.20;99.90;;;14.53;74.15;102483.66;5053022;28;20059;-74
2022/10/03 00:41:34;;;;;;;7.93;3.70;;;14.20;99.90;;;14.48;74.42;102481.88;5051583;28;20067;-74
2022/10/03 00:44:37;;;;;;;7.10;3.83;;;14.10;99.90;;;14.39;74.48;102486.25;5052792;28;20049;-74
2022/10/03 00:47:41;;;;;;;6.65;3.17;;;14.10;99.90;;;14.38;73.95;102486.25;5052566;28;20053;-73
2022/10/03 00:50:58;;;;;;;4.50;3.22;;;14.00;99.90;;;14.27;74.97;102493.22;5052430;28;20041;-73
2022/10/03 00:53:54;;;;;;;6.32;3.40;;;13.90;99.90;;;14.22;75.23;102502.97;5046297;28;20084;-73
2022/10/03 00:56:48;;;;;;;4.30;3.17;;;13.90;99.90;;;14.08;75.36;102500.19;5048221;28;20399;-73
2022/10/03 00:59:32;;;;;;;8.77;3.63;;;13.80;99.90;;;14.08;75.51;102504.63;5052663;28;20052;-73
2022/10/03 01:02:24;;;;;;;7.20;3.72;;;13.70;99.90;;;14.12;75.50;102503.78;5052361;28;20060;-73
2022/10/03 01:05:02;;;;;;;6.78;4.03;;;13.70;99.90;;;14.12;75.51;102499.34;5052233;28;20056;-73
2022/10/03 01:08:19;;;;;;;6.03;3.28;;;13.70;99.90;;;14.14;75.94;102507.34;5052916;28;20047;-74
2022/10/03 01:10:56;;;;;;;8.00;3.30;;;13.70;99.90;;;14.22;75.98;102511.84;5052569;28;20118;-74
2022/10/03 01:13:38;;;;;;;10.75;4.05;;;13.80;99.90;;;14.25;75.93;102514.50;5052234;28;20040;-73
2022/10/03 01:16:17;;;;;;;6.03;3.58;;;13.90;99.90;;;14.24;75.58;102507.41;5055587;28;20056;-73
2022/10/03 01:19:02;;;;;;;6.10;3.00;;;13.90;99.90;;;14.27;75.63;102506.53;5056757;28;20049;-73
2022/10/03 01:21:41;;;;;;;3.50;3.20;;;13.90;99.90;;;14.17;76.03;102500.25;5072003;28;20426;-74
2022/10/03 01:24:39;;;;;;;6.82;3.83;;;13.80;99.90;;;14.09;76.25;102501.97;5056391;28;20056;-73
2022/10/03 01:27:11;;;;;;;6.57;3.67;;;13.80;99.90;;;14.14;75.90;102508.22;5056289;28;20049;-74
2022/10/03 01:32:47;;;;;;;4.57;2.80;;;13.80;99.90;;;14.08;75.75;102504.63;5056105;28;20510;-73
2022/10/03 01:35:30;;;;;;;3.47;2.90;;;13.70;99.90;;;14.07;75.94;102511.72;5056299;28;20051;-73
2022/10/03 01:38:14;;;;;;;4.80;3.10;;;13.70;99.90;;;14.06;76.25;102511.69;5056231;28;20097;-74
2022/10/03 01:40:51;;;;;;;7.68;3.42;;;13.70;99.90;;;14.11;76.23;102516.19;5056240;28;20049;-74
2022/10/03 01:43:22;;;;;;;8.32;3.60;;;13.80;99.90;;;14.16;76.26;102517.13;5056179;28;20139;-73
2022/10/03 01:46:11;;;;;;;9.25;4.00;;;13.80;99.90;;;14.13;76.10;102506.44;5056021;28;20056;-74
2022/10/03 01:48:52;;;;;;;5.88;3.53;;;13.80;99.90;;;14.09;75.82;102509.09;5056027;28;20143;-73
2022/10/03 01:51:28;;;;;;;4.32;2.75;;;13.80;99.90;;;14.05;75.34;102509.94;5056691;28;20458;-74
2022/10/03 01:54:13;;;;;;;3.05;2.70;;;13.80;99.90;;;14.06;75.40;102511.69;5056344;28;20045;-74
2022/10/03 01:56:53;;;;;;;5.60;2.95;;;13.70;99.90;;;14.08;75.86;102516.16;5056537;28;20049;-74
2022/10/03 01:59:31;;;;;;;2.72;2.53;;;13.70;99.90;;;14.05;75.89;102507.28;5055991;28;20380;-73
2022/10/03 02:02:08;;;;;;;3.33;2.65;;;13.70;99.90;;;14.06;75.80;102519.69;5056011;28;20063;-74
2022/10/03 02:04:47;;;;;;;3.30;2.55;;;13.70;99.90;;;14.10;76.12;102519.72;5055964;28;20136;-73
2022/10/03 02:07:26;;;;;;;4.28;3.00;;;13.80;99.90;;;14.09;75.92;102515.28;5055567;28;20409;-70
2022/10/03 02:10:07;;;;;;;3.78;2.83;;;13.70;99.90;;;13.88;75.94;102519.56;5071216;28;20140;-74
2022/10/03 02:12:40;;;;;;;3.05;2.85;;;13.60;99.90;;;13.82;75.58;102514.19;5055346;28;20051;-74
2022/10/03 02:15:18;;;;;;;3.28;2.92;;;13.50;99.90;;;13.77;76.28;102515.88;5070927;28;20049;-74
2022/10/03 02:22:35;;;;;;;4.05;3.20;;;13.40;99.90;;;13.93;76.35;102509.84;5321692;22;20067;-69
2022/10/03 02:25:25;;;;;;;3.72;2.90;;;13.60;99.90;;;13.96;76.84;102510.75;5034548;28;20148;-72
2022/10/03 02:28:59;;;;;;;4.43;3.20;;;13.60;99.90;;;13.97;76.63;102514.31;5034830;28;20049;-75
2022/10/03 02:32:05;;;;;;;4.60;3.25;;;13.60;99.90;;;13.95;77.04;102508.06;5016584;28;20049;-75
2022/10/03 02:35:34;;;;;;;6.75;3.72;;;13.60;99.90;;;14.06;76.62;102504.63;5035415;28;20052;-75
2022/10/03 02:38:49;;;;;;;6.07;3.15;;;13.70;99.90;;;14.10;76.83;102501.09;5028876;28;20053;-74
2022/10/03 02:42:04;;;;;;;4.95;3.40;;;13.70;99.90;;;14.05;76.87;102510.81;5035836;28;20056;-75
2022/10/03 02:45:01;;;;;;;7.90;3.20;;;13.70;99.90;;;14.02;76.96;102513.44;5002699;28;20143;-74
2022/10/03 02:48:27;;;;;;;4.47;3.35;;;13.60;99.90;;;14.06;76.69;102514.38;5035164;28;20406;-74
2022/10/03 02:51:32;;;;;;;5.50;3.47;;;13.70;99.90;;;13.97;76.14;102514.31;5035083;28;20041;-74
2022/10/03 02:54:52;;;;;;;6.35;3.33;;;13.60;99.90;;;13.94;76.10;102515.16;5050130;28;20141;-74
2022/10/03 02:58:21;;;;;;;4.78;3.35;;;13.60;99.90;;;13.92;76.19;102513.34;5035186;28;20045;-74
2022/10/03 03:01:36;;;;;;;3.30;2.95;;;13.60;99.90;;;13.88;76.24;102508.91;5020001;28;20052;-75
2022/10/03 03:04:44;;;;;;;7.38;3.13;;;13.50;99.90;;;13.90;76.63;102512.47;5033024;28;20526;-74
2022/10/03 03:07:39;;;;;;;6.78;3.30;;;13.60;99.90;;;13.89;76.52;102516.91;5034981;28;20037;-74
2022/10/03 03:10:37;;;;;;;5.80;3.20;;;13.50;99.90;;;13.87;76.73;102517.75;5034601;28;20562;-72
2022/10/03 03:13:58;;;;;;;7.85;3.72;;;13.50;99.90;;;13.86;77.14;102514.19;5034459;28;20064;-74
2022/10/03 03:16:42;;;;;;;;;;;13.50;99.90;;;13.83;76.53;102516.84;5044135;28;20045;-74
2022/10/03 03:19:27;;;;;;;5.75;3.35;;;13.60;99.90;;;13.77;76.22;102522.09;5034758;28;19967;-74
2022/10/03 03:22:10;;;;;;;11.95;4.03;;;13.50;99.90;;;13.86;76.30;102518.66;5034217;28;20061;-74
2022/10/03 03:24:56;;;;;;;7.00;3.78;;;13.50;99.90;;;13.91;76.59;102520.47;5034580;28;20053;-74
2022/10/03 03:27:45;;;;;;;5.88;3.20;;;13.60;99.90;;;13.82;76.57;102520.38;5034545;28;20495;-74
2022/10/03 03:30:18;;;;;;;4.18;3.00;;;13.50;99.90;;;13.83;76.77;102524.81;5034523;28;20037;-74
2022/10/03 03:33:03;;;;;;;3.72;3.10;;;13.50;99.90;;;13.81;76.56;102523.03;5034095;28;20475;-74
2022/10/03 03:35:47;;;;;;;9.70;3.60;;;13.50;99.90;;;13.81;76.44;102528.34;5034800;28;20041;-75
2022/10/03 03:38:31;;;;;;;7.35;3.25;;;13.50;99.90;;;13.89;76.74;102531.97;5033952;28;20045;-73
2022/10/03 03:41:18;;;;;;;12.20;4.35;;;13.50;99.90;;;14.07;76.74;102532.13;5033041;28;20049;-72
2022/10/03 03:44:20;;;;;;;12.25;3.92;;;13.70;99.90;;;14.17;77.03;102528.63;5034516;28;20479;-74
2022/10/03 03:47:13;;;;;;;9.30;4.00;;;13.80;99.90;;;14.28;76.88;102527.00;5034502;28;20041;-74
2022/10/03 03:50:05;;;;;;;18.58;3.97;;;14.00;99.90;;;14.31;77.14;102525.25;5034177;28;20060;-74
2022/10/03 03:52:57;;;;;;;4.85;3.63;;;14.00;99.90;;;14.26;77.07;102531.38;5033992;28;20427;-75
2022/10/03 03:55:50;;;;;;;5.05;3.15;;;14.00;99.90;;;14.22;76.66;102519.84;5033791;28;20045;-73
2022/10/03 03:58:38;;;;;;;9.60;3.83;;;13.90;99.90;;;14.24;76.64;102530.47;5033762;28;20033;-74
2022/10/03 04:01:45;;;;;;;6.50;3.17;;;13.90;99.90;;;14.25;76.80;102527.81;5033619;28;20056;-74
2022/10/03 04:04:32;;;;;;;8.63;2.90;;;13.90;99.90;;;14.15;76.67;102539.28;5033669;28;20075;-74
2022/10/03 04:07:17;;;;;;;4.45;3.08;;;13.90;99.90;;;14.16;77.33;102526.88;5033626;28;20380;-74
2022/10/03 04:10:07;;;;;;;8.85;4.20;;;13.80;99.90;;;14.26;77.46;102529.63;5032448;28;20128;-74
2022/10/03 04:13:03;;;;;;;5.43;3.92;;;13.90;99.90;;;14.34;77.48;102529.72;5033628;28;20151;-74
2022/10/03 04:15:59;;;;;;;5.00;3.33;;;14.00;99.90;;;14.25;77.37;102532.25;5033327;28;20501;-72
2022/10/03 04:18:57;;;;;;;4.97;3.20;;;13.90;99.90;;;14.17;77.41;102552.59;5033451;28;20037;-73
2022/10/03 04:21:51;;;;;;;3.75;3.25;;;13.80;99.90;;;14.17;77.76;102531.28;5033260;28;20068;-74
2022/10/03 04:24:58;;;;;;;4.75;3.03;;;13.80;99.90;;;13.55;77.18;102440.34;5033427;28;20047;-74
2022/10/03 04:28:04;;;;;;;3.95;3.22;;;13.80;99.90;;;14.10;77.28;102537.47;5033527;28;20049;-74
2022/10/03 04:30:43;;;;;;;6.60;4.03;;;13.70;99.90;;;14.05;77.35;102532.09;5033219;28;20067;-74
2022/10/03 04:33:32;;;;;;;7.03;4.15;;;13.70;99.90;;;14.12;77.33;102541.03;5048897;28;20149;-74
2022/10/03 04:36:59;;;;;;;9.07;4.68;;;13.70;99.90;;;14.10;77.20;102542.78;5033129;28;20131;-73
2022/10/03 04:39:37;;;;;;;4.97;3.90;;;13.70;99.90;;;14.11;77.14;102550.78;5031229;28;20056;-74
2022/10/03 04:42:20;;;;;;;4.10;3.70;;;13.70;99.90;;;14.09;77.34;102551.66;5033068;28;20069;-73
2022/10/03 04:45:07;;;;;;;6.93;4.28;;;13.70;99.90;;;14.15;77.55;102559.69;5033508;28;20049;-74
2022/10/03 04:47:46;;;;;;;10.10;4.70;;;13.80;99.90;;;14.16;77.36;102542.84;5033312;28;20050;-74
2022/10/03 04:50:31;;;;;;;6.93;3.88;;;13.80;99.90;;;14.11;77.53;102542.78;5032341;28;20045;-74
2022/10/03 04:53:24;;;;;;;5.85;3.13;;;13.80;99.90;;;14.09;77.68;102541.88;5031643;28;20049;-73
2022/10/03 04:56:03;;;;;;;6.05;3.58;;;13.70;99.90;;;14.00;77.75;102540.91;5033171;28;20128;-75
2022/10/03 04:58:39;;;;;;;3.55;3.05;;;13.60;99.90;;;13.94;78.24;102540.88;5032867;28;20129;-74
2022/10/03 05:01:16;;;;;;;4.78;3.30;;;13.60;99.90;;;13.97;78.30;102536.50;5048292;28;20054;-74
2022/10/03 05:03:54;;;;;;;3.65;2.90;;;13.60;99.90;;;13.95;78.32;102550.66;5031745;28;20053;-74
2022/10/03 05:06:44;;;;;;;5.28;3.50;;;13.60;99.90;;;13.94;78.51;102538.19;5048501;28;20054;-74
2022/10/03 05:09:32;;;;;;;7.40;4.63;;;13.60;99.90;;;13.94;78.73;102547.09;5032991;28;20093;-74
2022/10/03 05:12:13;;;;;;;8.43;4.15;;;13.50;99.90;;;13.17;78.61;102402.81;5032867;28;20037;-74
2022/10/03 05:14:57;;;;;;;;;;;13.50;99.90;;;13.91;78.49;102540.84;5032945;28;20128;-73
2022/10/03 05:17:38;;;;;;;11.85;4.88;;;13.60;99.90;;;13.86;78.82;102537.28;5032898;28;19921;-74
2022/10/03 05:20:41;;;;;;;8.23;4.63;;;13.50;99.90;;;13.79;79.49;102535.41;5032829;28;20050;-74
2022/10/03 05:23:30;;;;;;;9.18;4.60;;;13.50;99.90;;;13.86;79.64;102543.47;5032851;28;20539;-75
2022/10/03 05:26:08;;;;;;;9.68;4.40;;;13.50;99.90;;;13.87;79.72;102547.91;5032469;28;20049;-73
2022/10/03 05:29:04;;;;;;;9.30;5.47;;;13.50;99.90;;;13.96;79.31;102541.78;5032783;28;20045;-73
2022/10/03 05:31:48;;;;;;;10.63;4.88;;;13.60;99.90;;;13.93;79.24;102542.66;5032489;28;20041;-73
2022/10/03 05:34:32;;;;;;;7.38;3.65;;;13.60;99.90;;;13.94;78.98;102548.84;5032641;28;20049;-74
2022/10/03 05:37:24;;;;;;;11.07;4.30;;;13.50;99.90;;;13.87;78.79;102547.91;5032723;28;20045;-73
2022/10/03 05:40:00;;;;;;;12.10;4.43;;;13.60;99.90;;;13.93;78.68;102553.31;5032656;28;20042;-74
2022/10/03 05:42:54;;;;;;;10.02;4.70;;;13.50;99.90;;;13.94;78.78;102554.16;5032321;28;20125;-73
2022/10/03 05:45:31;;;;;;;5.07;3.70;;;13.60;99.90;;;13.95;78.54;102555.97;5032906;28;20056;-74
2022/10/03 05:48:15;;;;;;;10.85;5.03;;;13.60;99.90;;;13.97;79.10;102549.78;5032496;28;20469;-74
2022/10/03 05:51:12;;;;;;;10.90;4.97;;;13.50;99.90;;;14.00;79.14;102554.22;5032388;28;20068;-74
2022/10/03 05:54:28;;;;;;;10.75;4.93;;;13.60;99.90;;;13.92;79.29;102551.50;5032545;28;20041;-74
2022/10/03 05:57:26;;;;;;;8.40;4.60;;;13.60;99.90;;;14.02;79.22;102558.69;5032530;28;20041;-74
2022/10/03 06:00:19;;;;;;;7.82;4.47;;;13.60;99.90;;;14.05;79.21;102557.84;5032673;28;20388;-72
2022/10/03 06:03:46;;;;;;;6.97;3.95;;;13.60;99.90;;;14.01;79.13;102556.03;5035852;28;20041;-74
2022/10/03 06:06:21;;;;;;;8.75;4.45;;;13.70;99.90;;;13.96;79.10;102544.44;5036069;28;20131;-74
2022/10/03 06:09:38;;;;;;;11.02;5.30;;;13.70;99.90;;;14.02;79.11;102563.13;5035831;28;20056;-74
2022/10/03 06:12:10;;;;;;;6.93;4.28;;;13.70;99.90;;;14.05;79.35;102561.38;5035687;28;20140;-74
2022/10/03 06:15:53;;;;;;;6.43;4.63;;;13.70;99.90;;;14.13;79.24;102564.97;5035869;28;20037;-75
2022/10/03 06:18:58;;;;;;;7.22;4.63;;;13.70;99.90;;;14.17;79.58;102561.47;4965483;28;20078;-73
2022/10/03 06:22:21;;;;;;;10.15;4.90;;;13.80;99.90;;;14.16;80.05;102548.16;4974369;28;20055;-73
2022/10/03 06:25:48;;;;;;;4.78;4.13;;;13.80;99.90;;;14.28;79.59;102564.25;5035155;28;20053;-74
2022/10/03 06:28:57;;;;;;;7.03;3.88;;;13.90;99.90;;;14.26;79.44;102566.88;5025754;28;20068;-73
2022/10/03 06:32:12;;;;;;;10.30;4.38;;;13.90;99.90;;;14.33;79.13;102575.81;5034981;28;20422;-74
2022/10/03 06:35:24;;;;;;;6.90;4.55;;;14.00;99.90;;;14.37;79.02;102569.66;5035660;28;20063;-74
2022/10/03 06:38:24;;;;;;;;;;;14.00;99.90;;;14.48;78.93;102578.59;5036319;28;20438;-73
2022/10/03 06:41:34;;;;;;;12.67;5.13;;;14.10;99.90;;;14.61;79.01;102579.59;5035576;28;19928;-73
2022/10/03 06:44:24;;;;;;;12.30;5.90;;;14.20;99.90;;;14.63;79.05;102584.06;5035561;28;20064;-72
2022/10/03 06:47:21;;;;;;;11.50;5.60;;;14.20;99.90;;;14.51;79.25;102573.31;5035492;28;20049;-73
2022/10/03 06:50:36;;;;;;;10.80;5.50;;;14.20;99.90;;;14.57;79.38;102585.78;5035695;28;20052;-74
2022/10/03 06:53:40;;;;;;;12.63;5.63;;;14.20;99.90;;;14.59;79.32;102590.22;5021431;28;20045;-73
2022/10/03 06:57:03;;;;;;;9.48;5.53;;;14.20;99.90;;;14.65;79.21;102592.03;5035175;28;20056;-73
2022/10/03 07:00:10;;;;;;;12.43;5.22;;;14.20;99.90;;;14.70;79.16;102595.63;5035213;28;20048;-74
2022/10/03 07:03:34;;;;;;;9.65;4.80;;;14.30;99.90;;;14.59;79.50;102576.91;5035414;28;20046;-75
2022/10/03 07:07:06;;;;;;;12.15;5.30;;;14.30;99.90;;;14.80;79.52;102598.38;5027187;28;20062;-74
2022/10/03 07:10:17;;;;;;;16.80;5.68;;;14.40;99.90;;;14.98;79.04;102600.25;4995980;28;20561;-73
2022/10/03 07:13:18;;;;;;;14.18;6.13;;;14.60;99.90;;;14.99;79.17;102610.91;5035056;28;20196;-75
2022/10/03 07:16:30;;;;;;;16.73;5.95;;;14.60;99.90;;;14.94;79.33;102607.31;5034976;28;20041;-75
2022/10/03 07:19:29;;;;;;;13.48;5.57;;;14.60;99.90;;;15.06;79.51;102618.03;5033839;28;20045;-74
2022/10/03 07:23:12;;;;;;;13.80;6.63;;;14.70;99.90;;;15.17;79.14;102612.78;5034751;28;20057;-74
2022/10/03 07:26:23;;;;;;;14.13;5.85;;;14.80;99.90;;;15.20;79.12;102610.09;5012674;28;20132;-71
2022/10/03 07:29:28;;;;;;;19.13;5.95;;;14.90;99.90;;;15.28;79.13;102619.03;5034653;28;20051;-77
2022/10/03 07:32:45;;;;;;;10.75;5.78;;;14.90;99.90;;;15.32;79.39;102618.16;5034688;28;20048;-77
2022/10/03 07:39:16;;;;;;;15.52;5.55;;;15.00;99.90;;;15.35;80.79;102618.16;5050151;28;20073;-77
2022/10/03 07:42:24;;;;;;;11.23;5.68;;;15.00;99.90;;;15.41;80.86;102617.31;5022876;28;20517;-76
2022/10/03 07:45:29;;;;;;;9.75;5.30;;;15.00;99.90;;;15.55;81.16;102618.28;5034684;28;20468;-72
2022/10/03 07:48:46;;;;;;;12.00;5.47;;;15.10;99.90;;;15.61;81.69;102618.28;5034624;28;20048;-72
2022/10/03 07:51:28;;;;;;;13.50;6.05;;;15.20;99.90;;;15.82;81.61;102619.25;5034373;28;20050;-72
2022/10/03 07:54:50;;;;;;;14.75;5.90;;;15.40;99.90;;;16.02;81.24;102632.63;5034799;28;20475;-76
2022/10/03 07:57:59;;;;;;;11.15;5.60;;;15.60;99.90;;;16.23;81.38;102625.53;5032252;28;20058;-74
2022/10/03 08:00:37;;;;;;;11.27;5.88;;;15.80;99.90;;;16.39;81.34;102629.09;5034392;28;20042;-74
2022/10/03 08:04:03;;;;;;;16.15;6.75;;;16.10;99.90;;;16.56;82.06;102638.03;5034612;28;20070;-77
2022/10/03 08:06:38;;;;;;;20.00;6.70;;;16.30;99.90;;;16.69;82.34;102637.13;5033936;28;20410;-77
2022/10/03 08:09:31;;;;;;;18.45;6.70;;;16.40;99.90;;;16.87;81.72;102641.56;5034148;28;20048;-76
2022/10/03 08:12:31;;;;;;;14.68;6.53;;;16.50;99.90;;;16.99;81.66;102647.75;5049439;28;20053;-74
2022/10/03 08:15:10;;;;;;;15.30;6.18;;;16.60;99.90;;;17.15;81.79;102648.59;5049451;28;20491;-79
2022/10/03 08:18:28;;;;;;;15.98;6.40;;;16.80;99.90;;;17.34;81.26;102642.31;5033902;28;20049;-81
2022/10/03 08:20:59;;;;;;;14.98;5.72;;;17.00;99.90;;;17.49;81.00;102641.38;4972895;28;20043;-80
2022/10/03 08:24:13;;;;;;;17.95;5.53;;;17.20;99.90;;;17.70;80.66;102649.31;5029385;28;20093;-81
2022/10/03 08:27:11;;;;;;;25.42;7.25;;;17.30;99.90;;;17.81;80.21;102655.50;5032539;28;20056;-80
2022/10/03 08:30:20;;;;;;;17.73;5.90;;;17.50;99.90;;;17.97;80.24;102659.88;5033623;28;20045;-75
2022/10/03 08:33:32;;;;;;;16.48;5.60;;;17.60;99.90;;;18.16;79.69;102669.56;5033543;28;20043;-78
2022/10/03 08:36:44;;;;;;;15.02;5.75;;;17.80;99.90;;;18.31;78.72;102664.09;5033339;28;20050;-76
2022/10/03 08:39:25;;;;;;;14.70;6.13;;;18.00;99.90;;;18.43;78.53;102666.72;5005046;28;20057;-76
2022/10/03 08:42:41;;;;;;;15.77;5.57;;;18.10;99.90;;;18.56;78.39;102654.97;5033337;28;20407;-77
2022/10/03 08:45:50;;;;;;;14.25;5.18;;;18.20;99.90;;;18.59;77.92;102656.75;5033563;28;20053;-77
2022/10/03 08:48:52;;;;;;;26.25;6.25;;;18.30;99.90;;;18.63;77.19;102667.44;5032209;28;20088;-77
2022/10/03 08:51:55;;;;;;;19.70;5.03;;;18.30;99.90;;;18.65;77.03;102657.59;5033408;28;20124;-78
2022/10/03 08:55:30;;;;;;;12.95;5.43;;;18.30;99.90;;;18.70;76.56;102654.84;5033113;28;20073;-77
2022/10/03 08:58:36;;;;;;;16.85;5.07;;;18.40;99.90;;;18.73;76.64;102653.06;4972220;28;20141;-76
2022/10/03 09:01:30;;;;;;;19.67;5.70;;;18.40;99.90;;;18.71;76.46;102652.19;4972239;28;20055;-79
2022/10/03 09:04:52;;;;;;;15.90;6.07;;;18.30;99.90;;;18.65;76.01;102641.50;5026906;28;20149;-80
2022/10/03 09:08:10;;;;;;;14.60;5.72;;;18.40;99.90;;;18.64;75.59;102654.94;5033323;28;20124;-76
2022/10/03 09:11:06;;;;;;;12.38;4.72;;;18.20;99.90;;;18.62;75.63;102646.88;5016099;28;20103;-75
2022/10/03 09:14:27;;;;;;;13.82;5.35;;;18.30;99.90;;;18.57;76.11;102656.78;5032915;28;20534;-77
2022/10/03 09:17:43;;;;;;;12.63;5.18;;;18.20;99.90;;;18.64;76.48;102650.44;5032848;28;20581;-79
2022/10/03 09:21:05;;;;;;;12.93;5.75;;;18.20;99.90;;;18.68;77.15;102649.50;5032893;28;20045;-77
2022/10/03 09:24:17;;;;;;;13.95;5.38;;;18.30;99.90;;;18.72;77.13;102650.38;5029197;28;20049;-79
2022/10/03 09:27:30;;;;;;;15.07;5.60;;;18.30;99.90;;;18.70;77.67;102647.72;5032838;28;20116;-76
2022/10/03 09:30:21;;;;;;;16.88;5.75;;;18.40;99.90;;;18.74;78.02;102652.13;5033362;28;20053;-79
2022/10/03 09:34:01;;;;;;;13.77;5.15;;;18.30;99.90;;;18.72;77.92;102640.53;5032907;28;20053;-75
2022/10/03 09:37:14;;;;;;;15.13;6.07;;;18.40;99.90;;;18.65;77.99;102627.22;5034649;28;20077;-81
2022/10/03 09:40:30;;;;;;;15.75;5.60;;;18.40;99.90;;;18.80;78.04;102660.13;5036860;28;20047;-71
2022/10/03 09:44:26;;;;;;;16.67;6.45;;;18.40;99.90;;;18.88;77.94;102652.91;5036679;28;20132;-71
2022/10/03 09:47:29;;;;;;;12.68;5.32;;;18.50;99.90;;;18.85;78.19;102650.22;4975837;28;20059;-71
2022/10/03 09:50:51;;;;;;;13.60;5.70;;;18.50;99.90;;;18.91;78.13;102650.16;4975942;28;20099;-70
2022/10/03 09:54:06;;;;;;;15.82;5.68;;;18.50;99.90;;;18.92;78.29;102648.38;5037051;28;20128;-71
2022/10/03 09:57:12;;;;;;;14.73;5.85;;;18.50;99.90;;;18.91;78.26;102650.16;5052022;28;20403;-72
2022/10/03 10:00:14;;;;;;;14.52;5.43;;;18.60;99.90;;;18.97;78.07;102646.53;5052009;28;20402;-77
2022/10/03 10:03:20;;;;;;;14.95;5.80;;;18.60;99.90;;;18.37;78.29;102538.09;5036238;28;20100;-71
2022/10/03 10:06:14;;;;;;;15.57;5.43;;;18.60;99.90;;;18.93;78.07;102644.78;5035171;28;20375;-72
2022/10/03 10:09:27;;;;;;;12.80;5.70;;;18.60;99.90;;;18.95;77.93;102650.16;5036689;28;20046;-72
2022/10/03 10:12:38;;;;;;;15.68;5.38;;;18.60;99.90;;;18.92;78.04;102646.59;5023691;28;20058;-74
2022/10/03 10:15:45;;;;;;;;;;;18.50;99.90;;;18.86;77.75;102645.75;5052129;28;20049;-77
2022/10/03 10:19:05;;;;;;;13.85;5.45;;;18.50;99.90;;;18.85;77.51;102642.19;5036571;28;19921;-78
2022/10/03 10:22:33;;;;;;;11.63;5.47;;;18.50;99.90;;;18.86;77.08;102643.09;5036342;28;20050;-79
2022/10/03 10:25:58;;;;;;;11.18;4.82;;;18.40;99.90;;;18.83;76.99;102641.31;5036169;28;20049;-76
2022/10/03 10:29:34;;;;;;;11.60;5.13;;;18.50;99.90;;;18.85;76.60;102644.00;5015040;28;20061;-76
2022/10/03 10:33:03;;;;;;;12.25;4.70;;;18.50;99.90;;;18.84;76.13;102637.75;5034124;28;20061;-81
2022/10/03 10:36:57;;;;;;;10.82;4.50;;;18.50;99.90;;;18.89;75.98;102648.44;5035600;28;20041;-73
2022/10/03 10:40:45;;;;;;;14.82;5.55;;;18.50;99.90;;;18.93;75.63;102650.16;5035507;28;20372;-72
2022/10/03 10:44:32;;;;;;;14.43;5.80;;;18.60;99.90;;;18.29;75.35;102533.72;4891161;28;20059;-73
2022/10/03 10:47:56;;;;;;;12.05;5.28;;;18.50;99.90;;;18.93;75.30;102651.03;5035009;28;20052;-72
2022/10/03 10:51:11;;;;;;;14.23;5.18;;;18.50;99.90;;;18.92;75.52;102649.28;5034213;28;20052;-73
2022/10/03 10:54:33;;;;;;;12.00;4.65;;;18.50;99.90;;;18.88;75.78;102649.31;5035202;28;20570;-73
2022/10/03 10:57:32;;;;;;;11.52;4.57;;;18.50;99.90;;;18.81;75.79;102634.22;5031330;28;20061;-72
2022/10/03 11:00:29;;;;;;;13.23;5.55;;;18.50;99.90;;;18.86;75.74;102643.97;5050690;28;20144;-72
2022/10/03 11:03:57;;;;;;;16.27;5.53;;;18.50;99.90;;;18.79;76.03;102652.97;5033873;28;20057;-72
2022/10/03 11:07:10;;;;;;;15.85;5.95;;;18.50;99.90;;;18.80;76.31;102646.72;5035013;28;20056;-73
2022/10/03 11:10:06;;;;;;;15.13;5.78;;;18.40;99.90;;;18.74;76.56;102652.13;5035499;28;20128;-72
2022/10/03 11:13:36;;;;;;;13.20;5.88;;;18.40;99.90;;;18.67;76.30;102642.38;5035186;28;20050;-73
2022/10/03 11:17:06;;;;;;;13.27;5.15;;;18.30;99.90;;;18.65;76.28;102641.50;5034895;28;20037;-72
2022/10/03 11:20:17;;;;;;;13.82;5.93;;;18.30;99.90;;;18.60;76.43;102646.00;5024970;28;20085;-73
2022/10/03 11:23:32;;;;;;;13.07;5.97;;;18.20;99.90;;;18.58;76.82;102647.81;5035064;28;20056;-73
2022/10/03 11:27:02;;;;;;;16.50;5.55;;;18.20;99.90;;;18.62;76.65;102644.19;5034611;28;20380;-72
2022/10/03 11:30:22;;;;;;;19.02;6.60;;;18.20;99.90;;;18.60;76.42;102643.31;4995358;28;20061;-72
2022/10/03 11:33:52;;;;;;;13.73;5.43;;;18.30;99.90;;;18.56;76.54;102641.56;4973686;28;20579;-71
2022/10/03 11:36:52;;;;;;;14.25;5.68;;;18.20;99.90;;;18.61;76.27;102642.44;4973595;28;20165;-73
2022/10/03 11:39:30;;;;;;;16.05;6.03;;;18.20;99.90;;;18.61;76.49;102639.75;5034546;28;20053;-74
2022/10/03 11:42:11;;;;;;;18.20;5.90;;;18.20;99.90;;;18.61;76.60;102630.81;5034711;28;20049;-72
2022/10/03 11:44:41;;;;;;;;;;;18.20;99.90;;;18.67;76.42;102626.31;5035117;28;20510;-72
2022/10/03 11:47:42;;;;;;;15.77;5.57;;;18.30;99.90;;;18.71;75.94;102628.06;5033237;28;20275;-72
2022/10/03 11:50:33;;;;;;;;;;;18.30;99.90;;;18.72;75.81;102629.81;5023952;28;20053;-78
2022/10/03 11:53:23;;;;;;;18.80;6.28;;;18.40;99.90;;;18.76;75.63;102636.03;5034105;28;19944;-79
2022/10/03 11:56:07;;;;;;;13.23;5.25;;;18.40;99.90;;;18.73;75.70;102626.25;5033329;28;20487;-82
2022/10/03 11:58:52;;;;;;;44.25;26.70;;;18.40;99.90;;;18.80;75.34;102629.72;5034227;28;20045;-76
2022/10/03 12:01:34;;;;;;;192.80;164.32;;;18.40;99.90;;;18.83;75.38;102627.03;5034240;28;20051;-73
2022/10/03 12:04:15;;;;;;;260.38;198.50;;;18.50;99.90;;;18.92;74.89;102629.63;5034028;28;20403;-74
2022/10/03 12:10:02;;;;;;;;;;;18.60;99.90;;;18.92;74.08;102629.63;5034283;28;20092;-76
2022/10/03 12:12:38;;;;;;;11.25;5.00;;;18.60;99.90;;;18.84;74.16;102621.66;5033882;28;19925;-75
2022/10/03 12:15:25;;;;;;;13.82;5.78;;;18.60;99.90;;;18.95;74.06;102626.03;5033709;28;20121;-79
2022/10/03 12:18:05;;;;;;;17.85;6.60;;;18.60;99.90;;;18.97;73.98;102630.44;5033900;28;20048;-84
2022/10/03 12:20:58;;;;;;;19.42;6.20;;;18.60;99.90;;;19.01;74.15;102629.50;5034430;28;20073;-73
2022/10/03 12:23:44;;;;;;;15.88;5.57;;;18.60;99.90;;;18.97;73.65;102625.06;5034175;28;20132;-80
2022/10/03 12:26:20;;;;;;;19.55;6.78;;;18.60;99.90;;;18.97;73.53;102616.16;5033791;28;20041;-79
2022/10/03 12:28:54;;;;;;;16.05;5.07;;;18.60;99.90;;;18.97;73.32;102621.53;5033626;28;20041;-77
2022/10/03 12:31:34;;;;;;;18.25;5.57;;;18.60;99.90;;;19.01;72.92;102628.63;5033595;28;20479;-77
2022/10/03 12:34:27;;;;;;;14.97;6.43;;;18.60;99.90;;;19.11;72.75;102622.25;5033497;28;20049;-74
2022/10/03 12:37:16;;;;;;;13.25;5.55;;;18.70;99.90;;;19.08;72.25;102620.50;5033435;28;20045;-76